Time;durP1;ratioP1;P1;durP2;ratioP2;P2;SDS_P1;SDS_P2;PMS_P1;PMS_P2;Temp;Humidity;BMP_temperature;BMP_pressure;BME280_temperature;BME280_humidity;BME280_pressure;Samples;Min_cycle;Max_cycle;Signal;HPM_P1;HPM_P2
2023/06/24 00:00:15;;;;;;;0.50;0.20;;;;;;;16.72;90.88;101053.34;5030033;28;20948;-48
2023/06/24 00:02:45;;;;;;;0.50;0.20;;;;;;;16.65;91.37;101057.19;5023968;28;20468;-49
2023/06/24 00:05:11;;;;;;;0.50;0.20;;;;;;;16.63;91.54;101052.81;5029095;28;20473;-48
2023/06/24 00:07:44;;;;;;;0.50;0.20;;;;;;;16.72;91.17;101055.13;5030394;28;20492;-49
2023/06/24 00:10:13;;;;;;;0.50;0.20;;;;;;;16.59;91.35;101057.44;5028149;28;20463;-49
2023/06/24 00:12:41;;;;;;;2.00;1.80;;;;;;;16.71;90.83;101058.75;5027582;28;20505;-49
2023/06/24 00:15:11;;;;;;;0.50;0.20;;;;;;;16.64;91.38;101055.44;5027547;28;20495;-48
2023/06/24 00:17:38;;;;;;;0.50;0.20;;;;;;;16.64;91.18;101057.25;5022169;28;20839;-48
2023/06/24 00:20:07;;;;;;;0.50;0.20;;;;;;;16.70;91.08;101062.38;5026743;28;20463;-47
2023/06/24 00:22:34;;;;;;;0.50;0.20;;;;;;;16.69;91.04;101061.50;5024925;28;20969;-48
2023/06/24 00:25:00;;;;;;;0.50;0.20;;;;;;;16.81;90.55;101058.31;5033303;28;20464;-47
2023/06/24 00:27:27;;;;;;;0.50;0.20;;;;;;;16.94;90.01;101058.69;5019999;28;20492;-47
2023/06/24 00:29:53;;;;;;;0.50;0.20;;;;;;;16.81;90.41;101044.88;5031962;28;20804;-48
2023/06/24 00:32:20;;;;;;;0.50;0.20;;;;;;;17.07;89.72;101048.28;5022853;28;20477;-47
2023/06/24 00:34:47;;;;;;;0.50;0.20;;;;;;;16.77;90.83;101045.09;5026987;28;20515;-48
2023/06/24 00:37:14;;;;;;;0.50;0.20;;;;;;;16.73;91.23;101044.34;5021758;28;20499;-48
2023/06/24 00:39:40;;;;;;;0.50;0.20;;;;;;;16.86;90.80;101042.91;5029836;28;20471;-48
2023/06/24 00:42:07;;;;;;;0.50;0.20;;;;;;;16.72;90.80;101050.66;5025606;28;20482;-48
2023/06/24 00:44:33;;;;;;;0.50;0.20;;;;;;;16.67;91.24;101054.44;5028887;28;20471;-49
2023/06/24 00:47:02;;;;;;;0.50;0.20;;;;;;;16.62;92.08;101053.75;5023176;28;21048;-48
2023/06/24 00:49:28;;;;;;;0.50;0.20;;;;;;;16.63;92.33;101053.69;5026738;28;20982;-49
2023/06/24 00:51:55;;;;;;;0.50;0.20;;;;;;;16.57;92.60;101053.94;5028951;28;20471;-49
2023/06/24 00:54:22;;;;;;;0.50;0.20;;;;;;;16.52;92.26;101056.81;5024971;28;20489;-48
2023/06/24 00:56:48;;;;;;;0.50;0.20;;;;;;;16.56;92.39;101046.81;5026323;28;20981;-48
2023/06/24 00:59:16;;;;;;;0.50;0.20;;;;;;;16.57;92.37;101056.59;5031650;28;20467;-48
2023/06/24 01:01:45;;;;;;;0.50;0.20;;;;;;;16.52;92.18;101058.63;5024788;28;20468;-49
2023/06/24 01:04:12;;;;;;;0.50;0.30;;;;;;;16.45;92.25;101066.06;5029919;28;20470;-48
2023/06/24 01:06:43;;;;;;;0.50;0.20;;;;;;;16.33;92.61;101063.00;5023097;28;20489;-49
2023/06/24 01:09:10;;;;;;;0.50;0.20;;;;;;;16.38;92.36;101063.66;5027621;28;20468;-49
2023/06/24 01:11:38;;;;;;;0.50;0.20;;;;;;;16.28;92.99;101068.53;5029687;28;20467;-49
2023/06/24 01:14:05;;;;;;;0.50;0.20;;;;;;;16.05;94.19;101056.03;5028403;28;20550;-49
2023/06/24 01:16:48;;;;;;;0.50;0.20;;;;;;;16.07;93.89;101059.53;5026081;28;20588;-49
2023/06/24 01:20:10;;;;;;;0.50;0.20;;;;;;;16.03;93.73;101059.69;5027363;28;20491;-49
2023/06/24 01:22:49;;;;;;;0.50;0.20;;;;;;;15.97;94.43;101067.03;4980595;28;20466;-48
2023/06/24 01:25:54;;;;;;;0.50;0.20;;;;;;;15.98;94.61;101067.91;5028869;28;21014;-48
2023/06/24 01:28:59;;;;;;;0.50;0.20;;;;;;;15.91;94.70;101071.78;5014325;28;20497;-48
2023/06/24 01:31:37;;;;;;;0.50;0.20;;;;;;;15.97;94.11;101079.56;5022891;28;20509;-49
2023/06/24 01:34:29;;;;;;;0.50;0.20;;;;;;;15.86;94.67;101066.56;5029092;28;21008;-49
2023/06/24 01:37:08;;;;;;;0.50;0.20;;;;;;;15.68;96.38;101065.47;5012597;28;20503;-49
2023/06/24 01:39:43;;;;;;;0.50;0.20;;;;;;;15.67;95.95;101074.44;5024889;28;20459;-49
2023/06/24 01:42:13;;;;;;;0.50;0.20;;;;;;;15.63;96.00;101072.81;5017153;28;20463;-49
2023/06/24 01:44:43;;;;;;;0.50;0.20;;;;;;;15.67;95.95;101070.88;5025967;28;20465;-49
2023/06/24 01:47:10;;;;;;;0.50;0.20;;;;;;;15.72;95.98;101073.38;5028439;28;21012;-49
2023/06/24 01:49:41;;;;;;;0.50;0.20;;;;;;;15.64;96.11;101076.38;5023344;28;20474;-48
2023/06/24 01:52:10;;;;;;;0.50;0.20;;;;;;;15.70;96.41;101089.53;5027436;28;20882;-48
2023/06/24 01:54:39;;;;;;;0.50;0.20;;;;;;;15.76;96.56;101080.38;5021035;28;20841;-49
2023/06/24 01:57:08;;;;;;;0.50;0.20;;;;;;;15.64;96.40;101082.59;5025774;28;20622;-49
2023/06/24 01:59:40;;;;;;;0.50;0.20;;;;;;;15.72;95.94;101089.47;5026770;28;20496;-49
2023/06/24 02:02:08;;;;;;;0.50;0.20;;;;;;;15.60;95.67;101091.66;5024772;28;20550;-49
2023/06/24 02:04:35;;;;;;;0.50;0.20;;;;;;;15.65;95.75;101087.03;5023620;28;20487;-49
2023/06/24 02:07:03;;;;;;;0.50;0.20;;;;;;;15.50;96.46;101082.19;5031523;28;20509;-49
2023/06/24 02:09:32;;;;;;;0.50;0.20;;;;;;;15.44;96.62;101082.41;5018481;28;20500;-49
2023/06/24 02:12:01;;;;;;;0.50;0.20;;;;;;;15.40;96.87;101083.44;5024431;28;20459;-48
2023/06/24 02:14:30;;;;;;;0.43;0.20;;;;;;;15.54;96.68;101081.16;5017767;28;21036;-49
2023/06/24 02:16:59;;;;;;;0.93;0.93;;;;;;;15.45;96.40;101084.16;5024742;28;20527;-49
2023/06/24 02:19:29;;;;;;;0.50;0.20;;;;;;;15.64;95.76;101084.41;5020066;28;20464;-49
2023/06/24 02:21:59;;;;;;;0.50;0.20;;;;;;;15.49;96.37;101087.59;5026712;28;20467;-49
2023/06/24 02:24:28;;;;;;;0.50;0.20;;;;;;;15.44;96.49;101087.75;5026313;28;20464;-49
2023/06/24 02:26:57;;;;;;;0.50;0.20;;;;;;;15.28;97.34;101084.75;5024804;28;21092;-49
2023/06/24 02:29:26;;;;;;;0.50;0.20;;;;;;;15.41;97.54;101082.53;5011015;28;20989;-49
2023/06/24 02:31:53;;;;;;;0.40;0.20;;;;;;;15.28;97.42;101081.19;5025070;28;20513;-49
2023/06/24 02:34:20;;;;;;;0.50;0.20;;;;;;;15.38;97.32;101082.63;5019135;28;20517;-49
2023/06/24 02:36:47;;;;;;;0.40;0.20;;;;;;;15.29;97.68;101081.16;5026714;28;20496;-50
2023/06/24 02:39:13;;;;;;;0.50;0.20;;;;;;;15.33;97.98;101084.56;5007541;28;20557;-50
2023/06/24 02:41:40;;;;;;;0.50;0.20;;;;;;;15.27;97.99;101079.47;5017441;28;20499;-49
2023/06/24 02:44:06;;;;;;;0.40;0.20;;;;;;;15.16;98.40;101086.97;5033055;28;20470;-49
2023/06/24 02:46:36;;;;;;;0.50;0.20;;;;;;;15.01;99.26;101083.03;5038758;23;20589;-50
2023/06/24 02:49:03;;;;;;;0.50;0.20;;;;;;;14.96;99.51;101080.53;5055718;28;20553;-50
2023/06/24 02:51:30;;;;;;;0.50;0.20;;;;;;;14.97;99.63;101081.41;5055689;28;20467;-50
2023/06/24 02:53:58;;;;;;;0.40;0.20;;;;;;;14.83;99.89;101079.19;5055790;28;20907;-50
2023/06/24 02:56:27;;;;;;;0.50;0.20;;;;;;;14.81;100.00;101084.59;5055559;28;20537;-50
2023/06/24 02:58:54;;;;;;;0.50;0.20;;;;;;;14.94;99.02;101090.41;5055471;28;20536;-50
2023/06/24 03:01:24;;;;;;;0.50;0.20;;;;;;;14.96;99.36;101091.22;5055569;28;20470;-50
2023/06/24 03:03:55;;;;;;;0.40;0.20;;;;;;;15.05;98.87;101098.06;5055340;28;20490;-50
2023/06/24 03:06:22;;;;;;;0.40;0.20;;;;;;;15.11;98.75;101088.03;5054201;28;20479;-50
2023/06/24 03:08:49;;;;;;;0.40;0.20;;;;;;;14.97;99.30;101098.34;5055234;28;20470;-52
2023/06/24 03:11:16;;;;;;;0.50;0.20;;;;;;;14.80;99.08;101090.88;5055189;28;20541;-52
2023/06/24 03:13:43;;;;;;;0.50;0.20;;;;;;;14.68;99.32;101093.06;5054946;28;20470;-52
2023/06/24 03:16:12;;;;;;;0.40;0.20;;;;;;;14.67;99.66;101094.00;5054885;28;20896;-52
2023/06/24 03:18:42;;;;;;;0.50;0.20;;;;;;;14.72;99.27;101095.59;5054935;28;20470;-52
2023/06/24 03:21:11;;;;;;;0.50;0.20;;;;;;;14.75;99.21;101097.28;5055385;28;20561;-52
2023/06/24 03:23:39;;;;;;;0.50;0.20;;;;;;;14.77;98.98;101095.44;5054634;28;20870;-52
2023/06/24 03:26:07;;;;;;;0.40;0.20;;;;;;;14.74;99.19;101098.22;5055013;28;20512;-52
2023/06/24 03:28:34;;;;;;;0.47;0.20;;;;;;;14.60;99.75;101097.78;5054664;28;20470;-52
2023/06/24 03:31:01;;;;;;;0.50;0.20;;;;;;;14.51;100.00;101091.78;5054887;28;20462;-52
2023/06/24 03:33:27;;;;;;;0.40;0.20;;;;;;;14.75;99.90;101094.59;5054938;28;20525;-52
2023/06/24 03:35:54;;;;;;;0.50;0.20;;;;;;;14.69;100.00;101092.16;5053082;28;20474;-53
2023/06/24 03:38:21;;;;;;;0.40;0.20;;;;;;;14.88;99.88;101098.63;5054883;28;20829;-52
2023/06/24 03:40:48;;;;;;;0.40;0.20;;;;;;;14.97;99.73;101098.34;5054544;28;20537;-53
2023/06/24 03:43:14;;;;;;;0.40;0.20;;;;;;;15.00;99.02;101100.91;5054596;28;20500;-53
2023/06/24 03:45:41;;;;;;;0.40;0.20;;;;;;;15.10;98.79;101097.00;5054395;28;20462;-53
2023/06/24 03:48:07;;;;;;;0.40;0.20;;;;;;;15.15;98.63;101085.25;5054045;28;20486;-52
2023/06/24 03:50:34;;;;;;;0.40;0.20;;;;;;;15.11;98.38;101090.69;5054310;28;20997;-52
2023/06/24 03:53:00;;;;;;;0.40;0.20;;;;;;;15.20;98.07;101096.66;5054617;28;20466;-53
2023/06/24 03:55:27;;;;;;;0.43;0.20;;;;;;;15.15;97.92;101103.97;5054621;28;20877;-52
2023/06/24 03:57:53;;;;;;;0.40;0.20;;;;;;;15.04;98.39;101102.53;5053921;28;20915;-53
2023/06/24 04:00:20;;;;;;;0.40;0.20;;;;;;;15.09;98.34;101105.94;5054483;28;20524;-52
2023/06/24 04:02:47;;;;;;;0.40;0.20;;;;;;;15.17;98.93;101105.66;5054316;28;20467;-52
2023/06/24 04:05:14;;;;;;;0.40;0.20;;;;;;;15.17;99.04;101099.44;5053111;28;20469;-52
2023/06/24 04:07:41;;;;;;;0.40;0.20;;;;;;;15.23;99.09;101105.47;5054007;28;20486;-53
2023/06/24 04:10:10;;;;;;;0.40;0.20;;;;;;;15.22;98.97;101113.56;5054328;28;20617;-52
2023/06/24 04:12:37;;;;;;;0.40;0.20;;;;;;;15.29;99.06;101113.28;5053844;28;20466;-52
2023/06/24 04:15:04;;;;;;;0.40;0.20;;;;;;;15.43;98.69;101109.25;5054306;28;20502;-52
2023/06/24 04:17:31;;;;;;;0.40;0.20;;;;;;;15.46;98.49;101109.13;5053743;28;20894;-52
2023/06/24 04:19:58;;;;;;;0.40;0.20;;;;;;;15.57;98.10;101106.94;5046231;28;20471;-52
2023/06/24 04:22:25;;;;;;;0.40;0.20;;;;;;;15.62;97.73;101108.59;5053960;28;21031;-52
2023/06/24 04:24:52;;;;;;;0.40;0.20;;;;;;;15.65;97.74;101115.63;5053839;28;20553;-52
2023/06/24 04:27:18;;;;;;;0.40;0.20;;;;;;;15.80;97.36;101116.88;5053630;28;20482;-52
2023/06/24 04:29:45;;;;;;;0.40;0.20;;;;;;;16.08;96.16;101120.28;5053674;28;20466;-53
2023/06/24 04:32:11;;;;;;;0.40;0.20;;;;;;;16.69;93.78;101115.22;5053706;28;20893;-52
2023/06/24 04:34:40;;;;;;;0.50;0.30;;;;;;;17.54;91.04;101128.63;5052556;28;20466;-53
2023/06/24 04:37:06;;;;;;;0.40;0.20;;;;;;;17.96;87.59;101123.22;5053667;28;20530;-52
2023/06/24 04:39:33;;;;;;;0.40;0.20;;;;;;;18.38;86.31;101124.84;5053737;28;20497;-53
2023/06/24 04:41:59;;;;;;;0.40;0.20;;;;;;;18.49;86.28;101123.34;5053581;28;20494;-52
2023/06/24 04:44:26;;;;;;;0.50;0.30;;;;;;;18.81;84.34;101127.22;5053891;28;20492;-53
2023/06/24 04:46:52;;;;;;;0.50;0.20;;;;;;;18.98;83.18;101131.78;5053152;28;20487;-53
2023/06/24 04:49:19;;;;;;;0.50;0.20;;;;;;;19.31;81.48;101129.19;5053544;28;20898;-53
2023/06/24 04:51:46;;;;;;;0.50;0.20;;;;;;;19.39;81.29;101126.09;5052054;28;20509;-53
2023/06/24 04:54:12;;;;;;;0.50;0.20;;;;;;;19.56;79.93;101131.53;5053424;28;20470;-53
2023/06/24 04:56:40;;;;;;;0.50;0.20;;;;;;;19.63;79.73;101129.41;5053276;28;20505;-53
2023/06/24 04:59:06;;;;;;;0.50;0.20;;;;;;;19.78;79.92;101128.56;5052460;28;20469;-53
2023/06/24 05:01:33;;;;;;;0.50;0.20;;;;;;;19.93;79.07;101134.97;5053128;28;20849;-53
2023/06/24 05:03:59;;;;;;;0.50;0.20;;;;;;;20.08;78.40;101140.41;5053230;28;20469;-53
2023/06/24 05:06:26;;;;;;;0.50;0.20;;;;;;;20.20;77.96;101146.97;5051818;28;20486;-53
2023/06/24 05:08:52;;;;;;;0.50;0.20;;;;;;;20.38;77.83;101142.38;5052917;28;20839;-53
2023/06/24 05:11:19;;;;;;;0.50;0.20;;;;;;;20.50;76.82;101146.25;5053345;28;20491;-53
2023/06/24 05:13:45;;;;;;;0.50;0.20;;;;;;;20.69;76.55;101142.41;5052750;28;20849;-53
2023/06/24 05:16:12;;;;;;;0.50;0.20;;;;;;;21.39;74.09;101137.47;5052731;28;20493;-53
2023/06/24 05:18:38;;;;;;;0.50;0.20;;;;;;;20.94;75.12;101139.19;5052650;28;20992;-53
2023/06/24 05:21:05;;;;;;;0.50;0.20;;;;;;;21.77;73.53;101145.94;5052968;28;20532;-53
2023/06/24 05:23:31;;;;;;;0.50;0.30;;;;;;;22.03;70.63;101149.75;5052513;28;20486;-54
2023/06/24 05:25:58;;;;;;;0.50;0.20;;;;;;;21.81;70.51;101152.94;5044832;28;20463;-53
2023/06/24 05:28:24;;;;;;;1.27;1.27;;;;;;;21.81;71.39;101152.94;5052655;28;20490;-53
2023/06/24 05:30:51;;;;;;;0.50;0.20;;;;;;;22.20;69.35;101148.72;5052584;28;20546;-53
2023/06/24 05:33:17;;;;;;;0.50;0.20;;;;;;;22.17;70.17;101154.34;5051358;28;20472;-53
2023/06/24 05:35:44;;;;;;;0.50;0.20;;;;;;;21.87;69.94;101155.25;5049832;28;20462;-53
2023/06/24 05:38:11;;;;;;;0.50;0.20;;;;;;;21.75;71.67;101155.13;5052173;28;20501;-53
2023/06/24 05:40:37;;;;;;;0.50;0.20;;;;;;;21.87;70.92;101151.69;5052164;28;21009;-53
2023/06/24 05:43:04;;;;;;;0.50;0.20;;;;;;;22.08;71.38;101158.50;5052474;28;20467;-53
2023/06/24 05:45:30;;;;;;;0.50;0.30;;;;;;;21.92;71.03;101156.81;5052201;28;20967;-53
2023/06/24 05:47:57;;;;;;;0.50;0.20;;;;;;;22.47;70.17;101154.22;5051981;28;20556;-53
2023/06/24 05:50:23;;;;;;;0.50;0.20;;;;;;;22.18;69.60;101164.19;5052319;28;20517;-53
2023/06/24 05:52:50;;;;;;;0.50;0.20;;;;;;;21.70;71.25;101159.97;5051934;28;20524;-53
2023/06/24 05:55:16;;;;;;;0.50;0.20;;;;;;;22.32;70.28;101164.19;5052133;28;20517;-53
2023/06/24 05:57:43;;;;;;;0.50;0.20;;;;;;;21.74;71.44;101156.09;5051755;28;20533;-53
2023/06/24 06:00:10;;;;;;;0.50;0.30;;;;;;;22.28;69.80;101151.81;5052169;28;20463;-53
2023/06/24 06:02:36;;;;;;;0.50;0.30;;;;;;;22.77;67.86;101154.09;5051917;28;20466;-53
2023/06/24 06:05:03;;;;;;;0.50;0.20;;;;;;;22.22;69.32;101152.22;5050513;28;20505;-53
2023/06/24 06:07:30;;;;;;;0.50;0.20;;;;;;;22.57;68.71;101152.66;5051835;28;20478;-53
2023/06/24 06:09:56;;;;;;;0.50;0.20;;;;;;;22.49;68.75;101157.72;5051821;28;21017;-53
2023/06/24 06:12:23;;;;;;;0.50;0.23;;;;;;;23.26;66.79;101156.25;5052122;28;20462;-53
2023/06/24 06:14:49;;;;;;;0.50;0.20;;;;;;;22.71;68.29;101165.31;5052004;28;20833;-53
2023/06/24 06:17:16;;;;;;;0.50;0.20;;;;;;;22.82;67.86;101160.06;5051732;28;20556;-53
2023/06/24 06:19:46;;;;;;;0.50;0.30;;;;;;;23.03;67.14;101164.13;5051521;28;20462;-53
2023/06/24 06:22:15;;;;;;;0.50;0.20;;;;;;;23.12;67.07;101159.91;5051682;28;20955;-53
2023/06/24 06:24:42;;;;;;;0.60;0.40;;;;;;;23.40;66.52;101164.34;5051451;28;20815;-53
2023/06/24 06:27:12;;;;;;;0.50;0.30;;;;;;;23.26;66.43;101165.28;5051475;28;20482;-53
2023/06/24 06:29:40;;;;;;;0.50;0.20;;;;;;;23.66;65.68;101164.44;5051753;28;20489;-54
2023/06/24 06:32:07;;;;;;;0.50;0.20;;;;;;;22.91;68.15;101153.22;5051904;28;20905;-53
2023/06/24 06:34:34;;;;;;;0.50;0.20;;;;;;;23.31;67.74;101163.13;5050500;28;21009;-53
2023/06/24 06:37:01;;;;;;;0.50;0.20;;;;;;;23.75;64.83;101159.25;5051683;28;20494;-54
2023/06/24 06:39:27;;;;;;;0.50;0.30;;;;;;;23.81;65.52;101150.66;5051670;28;20466;-53
2023/06/24 06:41:54;;;;;;;0.50;0.20;;;;;;;23.72;65.86;101156.75;5051255;28;20540;-53
2023/06/24 06:44:21;;;;;;;0.50;0.30;;;;;;;23.61;66.22;101153.91;5051817;28;20842;-53
2023/06/24 06:46:47;;;;;;;0.50;0.20;;;;;;;23.42;66.34;101150.66;5049713;28;20490;-53
2023/06/24 06:49:14;;;;;;;0.50;0.20;;;;;;;23.52;66.56;101154.50;5051925;28;20520;-53
2023/06/24 06:51:40;;;;;;;0.50;0.20;;;;;;;23.66;64.69;101154.44;5049285;28;20553;-53
2023/06/24 06:54:07;;;;;;;0.50;0.20;;;;;;;24.00;63.74;101142.09;5051554;28;20474;-53
2023/06/24 06:56:33;;;;;;;0.50;0.30;;;;;;;23.79;65.12;101154.47;5048208;28;20563;-53
2023/06/24 06:59:00;;;;;;;0.50;0.30;;;;;;;23.67;64.55;101158.88;5051424;28;20489;-54
2023/06/24 07:01:26;;;;;;;0.50;0.20;;;;;;;24.01;64.36;101156.53;5051331;28;20553;-53
2023/06/24 07:03:53;;;;;;;0.50;0.20;;;;;;;24.01;62.87;101156.53;5051522;28;20836;-54
2023/06/24 07:06:20;;;;;;;0.50;0.20;;;;;;;24.10;64.18;101154.03;5050106;28;20486;-53
2023/06/24 07:08:46;;;;;;;0.50;0.30;;;;;;;23.72;63.83;101155.88;5051186;28;20463;-54
2023/06/24 07:11:13;;;;;;;0.50;0.20;;;;;;;24.23;63.12;101157.59;5045313;28;20466;-53
2023/06/24 07:13:39;;;;;;;0.50;0.30;;;;;;;24.21;62.20;101145.97;5051183;28;20467;-53
2023/06/24 07:16:06;;;;;;;0.50;0.30;;;;;;;24.13;62.38;101148.41;5051106;28;20570;-53
2023/06/24 07:18:32;;;;;;;0.50;0.20;;;;;;;24.38;61.97;101138.47;5050985;28;20491;-54
2023/06/24 07:21:00;;;;;;;0.50;0.20;;;;;;;24.86;59.71;101141.31;5051456;28;20473;-53
2023/06/24 07:23:26;;;;;;;0.50;0.20;;;;;;;25.20;59.34;101140.50;5054299;28;20497;-53
2023/06/24 07:25:53;;;;;;;0.50;0.20;;;;;;;24.61;60.23;101132.22;5054733;28;20433;-53
2023/06/24 07:28:19;;;;;;;0.50;0.30;;;;;;;24.44;60.98;101136.19;5054973;28;20489;-54
2023/06/24 07:30:46;;;;;;;0.50;0.30;;;;;;;24.55;59.66;101140.00;5054660;28;20536;-53
2023/06/24 07:33:12;;;;;;;0.50;0.20;;;;;;;24.83;59.21;101136.09;5054980;28;20476;-53
2023/06/24 07:35:39;;;;;;;0.50;0.30;;;;;;;25.38;58.42;101138.25;5053568;28;20444;-53
2023/06/24 07:38:05;;;;;;;0.50;0.20;;;;;;;25.32;57.30;101134.13;5048031;28;20950;-53
2023/06/24 07:40:32;;;;;;;0.50;0.20;;;;;;;24.61;58.46;101128.66;5054392;28;20512;-54
2023/06/24 07:42:58;;;;;;;0.50;0.23;;;;;;;24.98;56.95;101135.81;5054315;28;20444;-53
2023/06/24 07:45:25;;;;;;;0.50;0.20;;;;;;;25.61;56.66;101142.75;5054439;28;20943;-53
2023/06/24 07:47:52;;;;;;;0.50;0.27;;;;;;;25.27;56.29;101139.06;5053824;28;20952;-53
2023/06/24 07:50:18;;;;;;;0.50;0.30;;;;;;;25.17;57.43;101129.88;5054314;28;20456;-53
2023/06/24 07:52:45;;;;;;;0.50;0.23;;;;;;;25.49;56.40;101132.81;5054132;28;20462;-53
2023/06/24 07:55:11;;;;;;;0.50;0.30;;;;;;;25.68;55.84;101137.72;5054260;28;20551;-53
2023/06/24 07:57:38;;;;;;;0.50;0.30;;;;;;;26.23;54.36;101136.09;5053797;28;20501;-53
2023/06/24 08:00:09;;;;;;;0.50;0.30;;;;;;;26.74;52.69;101132.88;5054495;28;20491;-53
2023/06/24 08:02:35;;;;;;;0.50;0.30;;;;;;;25.86;53.61;101130.84;5054119;28;20465;-54
2023/06/24 08:05:02;;;;;;;0.50;0.30;;;;;;;26.30;51.70;101131.84;5054298;28;20472;-53
2023/06/24 08:07:29;;;;;;;0.50;0.20;;;;;;;26.34;51.77;101137.97;5050234;28;20829;-53
2023/06/24 08:09:56;;;;;;;0.50;0.23;;;;;;;26.55;52.94;101130.75;5053693;28;20520;-53
2023/06/24 08:12:22;;;;;;;0.50;0.30;;;;;;;26.52;52.15;101133.75;5054126;28;20501;-53
2023/06/24 08:14:49;;;;;;;0.50;0.30;;;;;;;26.09;53.61;101126.31;5054171;28;20835;-53
2023/06/24 08:17:15;;;;;;;0.50;0.30;;;;;;;26.36;52.83;101122.38;5053742;28;20502;-53
2023/06/24 08:19:42;;;;;;;0.50;0.20;;;;;;;26.17;52.56;101122.94;5053872;28;20438;-53
2023/06/24 08:22:09;;;;;;;0.50;0.30;;;;;;;26.31;52.52;101119.97;5053977;28;20471;-53
2023/06/24 08:24:36;;;;;;;0.50;0.30;;;;;;;26.16;53.10;101119.34;5054008;28;20476;-53
2023/06/24 08:27:03;;;;;;;0.50;0.30;;;;;;;26.71;51.66;101120.31;5053551;28;20615;-53
2023/06/24 08:29:30;;;;;;;0.50;0.30;;;;;;;26.58;51.97;101115.00;5053897;28;20470;-53
2023/06/24 08:31:56;;;;;;;0.50;0.30;;;;;;;27.12;51.43;101114.16;5053834;28;20549;-53
2023/06/24 08:34:23;;;;;;;1.17;1.03;;;;;;;27.04;51.63;101105.75;5052879;28;20473;-53
2023/06/24 08:36:52;;;;;;;0.50;0.30;;;;;;;27.51;49.64;101105.41;5050985;28;20465;-53
2023/06/24 08:39:18;;;;;;;0.50;0.30;;;;;;;27.18;50.01;101104.59;5053690;28;20473;-53
2023/06/24 08:41:45;;;;;;;0.50;0.30;;;;;;;27.13;50.13;101113.16;5053297;28;20449;-53
2023/06/24 08:44:12;;;;;;;0.50;0.30;;;;;;;27.17;49.87;101105.59;5053721;28;20445;-53
2023/06/24 08:46:39;;;;;;;0.50;0.30;;;;;;;27.29;48.12;101109.13;5066394;23;20473;-51
2023/06/24 08:49:11;;;;;;;0.50;0.27;;;;;;;27.56;49.83;101104.03;5053305;28;20458;-51
2023/06/24 08:51:41;;;;;;;0.50;0.30;;;;;;;27.75;48.00;101106.03;5053235;28;20501;-51
2023/06/24 08:54:10;;;;;;;0.50;0.30;;;;;;;28.31;46.19;101100.16;5053115;28;20433;-51
2023/06/24 08:56:38;;;;;;;0.50;0.30;;;;;;;27.95;46.40;101110.59;5052961;28;20489;-52
2023/06/24 08:59:08;;;;;;;0.50;0.30;;;;;;;28.28;46.93;101108.63;5053988;28;20583;-51
2023/06/24 09:01:35;;;;;;;0.50;0.30;;;;;;;28.09;45.46;101108.50;5051322;28;20461;-51
2023/06/24 09:04:02;;;;;;;0.50;0.30;;;;;;;28.69;44.81;101106.75;5054180;28;20440;-52
2023/06/24 09:06:31;;;;;;;0.50;0.30;;;;;;;28.20;45.08;101105.69;5050453;28;20487;-51
2023/06/24 09:08:57;;;;;;;0.50;0.30;;;;;;;28.30;44.71;101106.63;5047995;28;20808;-57
2023/06/24 09:11:26;;;;;;;0.50;0.30;;;;;;;28.20;46.06;101098.34;5053848;28;20512;-51
2023/06/24 09:13:57;;;;;;;0.50;0.30;;;;;;;28.70;43.84;101094.78;5053315;28;20441;-51
2023/06/24 09:16:23;;;;;;;0.50;0.30;;;;;;;28.86;42.77;101090.50;5053934;28;20510;-52
2023/06/24 09:18:51;;;;;;;0.50;0.30;;;;;;;28.04;43.98;101090.66;5053161;28;20593;-51
2023/06/24 09:21:25;;;;;;;0.50;0.30;;;;;;;28.88;42.94;101095.84;5053941;28;20445;-51
2023/06/24 09:23:55;;;;;;;0.50;0.30;;;;;;;28.81;42.83;101083.72;5052893;28;21369;-52
2023/06/24 09:26:26;;;;;;;0.50;0.30;;;;;;;27.59;45.17;101079.16;5053202;28;20486;-51
2023/06/24 09:28:54;;;;;;;0.50;0.30;;;;;;;27.83;45.56;101078.91;5053021;28;20458;-52
2023/06/24 09:31:22;;;;;;;0.50;0.30;;;;;;;28.19;44.82;101069.28;5053067;28;20441;-51
2023/06/24 09:33:49;;;;;;;0.50;0.30;;;;;;;27.92;45.49;101060.81;5053062;28;20463;-51
2023/06/24 09:36:16;;;;;;;0.50;0.30;;;;;;;27.52;46.22;101066.16;5051776;28;20521;-51
2023/06/24 09:38:44;;;;;;;0.50;0.30;;;;;;;27.46;46.09;101067.56;5052032;28;20469;-51
2023/06/24 09:41:12;;;;;;;1.97;1.50;;;;;;;27.58;46.08;101060.19;5053398;28;20499;-51
2023/06/24 09:43:43;;;;;;;0.50;0.30;;;;;;;28.19;44.91;101061.06;5050974;28;20467;-52
2023/06/24 09:46:11;;;;;;;0.50;0.50;;;;;;;28.46;43.49;101052.25;5051812;28;20442;-50
2023/06/24 09:48:39;;;;;;;0.50;0.30;;;;;;;28.24;44.56;101056.06;5052199;28;20524;-49
2023/06/24 09:51:06;;;;;;;0.50;0.30;;;;;;;28.30;42.89;101055.53;5052419;28;20441;-49
2023/06/24 09:53:34;;;;;;;0.50;0.30;;;;;;;28.71;41.84;101050.00;5052167;28;20856;-51
2023/06/24 09:56:04;;;;;;;0.50;0.20;;;;;;;28.82;42.30;101047.13;5052310;28;20470;-49
2023/06/24 09:58:38;;;;;;;0.50;0.30;;;;;;;28.73;42.37;101043.38;5051968;28;20469;-50
2023/06/24 10:01:06;;;;;;;0.50;0.30;;;;;;;28.54;42.52;101033.28;5052406;28;20458;-50
2023/06/24 10:03:36;;;;;;;0.50;0.30;;;;;;;28.48;43.06;101027.47;5052123;28;20474;-51
2023/06/24 10:06:05;;;;;;;0.50;0.30;;;;;;;29.40;42.32;101030.69;5052018;28;20468;-50
2023/06/24 10:08:32;;;;;;;0.50;0.30;;;;;;;29.69;40.26;101031.50;5048641;28;20436;-51
2023/06/24 10:11:00;;;;;;;0.50;0.30;;;;;;;29.47;41.24;101027.25;5052068;28;20444;-51
2023/06/24 10:13:27;;;;;;;0.50;0.30;;;;;;;28.90;42.05;101017.19;5052294;28;20441;-50
2023/06/24 10:15:56;;;;;;;0.50;0.30;;;;;;;29.85;40.41;101019.03;5052017;28;20458;-50
2023/06/24 10:18:31;;;;;;;0.50;0.30;;;;;;;29.88;39.40;101018.72;5047300;28;20548;-50
2023/06/24 10:20:58;;;;;;;0.50;0.30;;;;;;;29.31;41.18;101018.72;5043981;28;20557;-50
2023/06/24 10:23:56;;;;;;;0.50;0.30;;;;;;;29.38;40.42;101019.03;5051670;28;20982;-50
2023/06/24 10:26:28;;;;;;;0.50;0.30;;;;;;;29.41;41.20;101015.97;5051778;28;20486;-50
2023/06/24 10:29:07;;;;;;;0.50;0.30;;;;;;;28.87;40.34;101001.06;5051689;28;20477;-51
2023/06/24 10:31:39;;;;;;;0.50;0.50;;;;;;;29.14;39.92;101003.91;5051413;28;20951;-49
2023/06/24 10:34:18;;;;;;;0.60;0.50;;;;;;;29.55;39.94;101001.84;5046992;28;20456;-50
2023/06/24 10:37:14;;;;;;;0.50;0.30;;;;;;;29.84;39.14;101003.59;5049014;28;20457;-50
2023/06/24 10:39:47;;;;;;;0.50;0.23;;;;;;;30.21;38.05;101003.59;5043190;28;20998;-51
2023/06/24 10:42:46;;;;;;;0.50;0.30;;;;;;;30.15;38.65;100999.56;5051733;28;20840;-50
2023/06/24 10:45:17;;;;;;;0.50;0.30;;;;;;;29.53;38.08;100995.66;5051720;28;20459;-50
2023/06/24 10:47:59;;;;;;;0.50;0.30;;;;;;;29.64;38.17;100992.72;5051436;28;20468;-50
2023/06/24 10:50:26;;;;;;;0.50;0.30;;;;;;;29.98;38.99;100989.38;5051569;28;20480;-50
2023/06/24 10:52:55;;;;;;;0.50;0.30;;;;;;;29.89;38.85;100985.72;5051715;28;20474;-50
2023/06/24 10:55:24;;;;;;;0.50;0.30;;;;;;;30.38;38.13;100983.56;5051806;28;20528;-50
2023/06/24 10:57:51;;;;;;;0.50;0.30;;;;;;;31.15;36.64;100977.44;5053243;28;20466;-51
2023/06/24 11:00:20;;;;;;;0.50;0.30;;;;;;;30.33;36.34;100980.44;5055608;28;20433;-50
2023/06/24 11:02:47;;;;;;;0.50;0.30;;;;;;;30.69;36.95;100973.09;5055343;28;20498;-51
2023/06/24 11:05:13;;;;;;;0.50;0.30;;;;;;;30.71;37.53;100973.81;5055375;28;21000;-50
2023/06/24 11:07:40;;;;;;;0.50;0.30;;;;;;;30.75;37.81;100966.97;5055259;28;20493;-50
2023/06/24 11:10:11;;;;;;;0.50;0.23;;;;;;;30.53;37.94;100961.94;5055358;28;20828;-50
2023/06/24 11:12:41;;;;;;;0.50;0.30;;;;;;;30.73;36.93;100965.41;5055274;28;20498;-50
2023/06/24 11:15:09;;;;;;;0.50;0.30;;;;;;;29.70;38.30;100963.84;5055352;28;20449;-51
2023/06/24 11:17:37;;;;;;;0.50;0.30;;;;;;;30.17;37.86;100959.16;5054771;28;20961;-51
2023/06/24 11:20:09;;;;;;;0.50;0.30;;;;;;;30.49;36.97;100952.28;5055342;28;20494;-50
2023/06/24 11:22:36;;;;;;;0.50;0.30;;;;;;;31.15;37.61;100954.59;5052093;28;20441;-50
2023/06/24 11:25:03;;;;;;;0.50;0.30;;;;;;;30.67;37.41;100955.91;5055214;28;20506;-50
2023/06/24 11:27:30;;;;;;;0.50;0.30;;;;;;;30.52;36.89;100951.97;5055031;28;20457;-49
2023/06/24 11:29:59;;;;;;;1.07;0.80;;;;;;;30.67;36.96;100947.69;5048937;28;20910;-49